sensor_id;sensor_type;location;lat;lon;timestamp;pressure;altitude;pressure_sealevel;temperature;humidity
34674;BME280;20879;55.668;37.858;2022-12-18T00:00:41;99249.69;;;-5.61;100.00
34674;BME280;20879;55.668;37.858;2022-12-18T00:03:17;99222.53;;;-5.67;100.00
34674;BME280;20879;55.668;37.858;2022-12-18T00:05:47;99214.06;;;-5.69;100.00
34674;BME280;20879;55.668;37.858;2022-12-18T00:08:22;99198.50;;;-5.58;100.00
34674;BME280;20879;55.668;37.858;2022-12-18T00:11:03;99230.38;;;-5.60;100.00
34674;BME280;20879;55.668;37.858;2022-12-18T00:13:33;99190.44;;;-5.71;100.00
34674;BME280;20879;55.668;37.858;2022-12-18T00:16:05;99202.44;;;-5.65;100.00
34674;BME280;20879;55.668;37.858;2022-12-18T00:18:42;99245.41;;;-5.64;100.00
34674;BME280;20879;55.668;37.858;2022-12-18T00:21:22;99209.81;;;-5.70;100.00
34674;BME280;20879;55.668;37.858;2022-12-18T00:23:54;99201.28;;;-5.52;100.00
34674;BME280;20879;55.668;37.858;2022-12-18T00:26:25;99202.38;;;-5.67;100.00
34674;BME280;20879;55.668;37.858;2022-12-18T00:28:59;99234.06;;;-5.73;100.00
34674;BME280;20879;55.668;37.858;2022-12-18T00:31:37;99187.81;;;-5.74;100.00
34674;BME280;20879;55.668;37.858;2022-12-18T00:34:10;99160.97;;;-5.72;100.00
34674;BME280;20879;55.668;37.858;2022-12-18T00:36:40;99133.06;;;-5.76;100.00
34674;BME280;20879;55.668;37.858;2022-12-18T00:39:11;99129.94;;;-5.90;100.00
34674;BME280;20879;55.668;37.858;2022-12-18T00:41:44;99212.88;;;-5.77;100.00
34674;BME280;20879;55.668;37.858;2022-12-18T00:44:26;99191.13;;;-5.75;100.00
34674;BME280;20879;55.668;37.858;2022-12-18T00:46:55;99169.94;;;-5.79;100.00
34674;BME280;20879;55.668;37.858;2022-12-18T00:49:26;99179.66;;;-5.88;100.00
34674;BME280;20879;55.668;37.858;2022-12-18T00:51:56;99165.66;;;-5.81;100.00
34674;BME280;20879;55.668;37.858;2022-12-18T00:54:25;99170.41;;;-5.87;100.00
34674;BME280;20879;55.668;37.858;2022-12-18T00:57:00;99152.50;;;-5.74;100.00
34674;BME280;20879;55.668;37.858;2022-12-18T00:59:29;99135.63;;;-5.75;100.00
34674;BME280;20879;55.668;37.858;2022-12-18T01:01:58;99125.53;;;-5.75;100.00
34674;BME280;20879;55.668;37.858;2022-12-18T01:04:30;99106.03;;;-6.02;100.00
34674;BME280;20879;55.668;37.858;2022-12-18T01:07:00;99147.84;;;-5.84;100.00
34674;BME280;20879;55.668;37.858;2022-12-18T01:09:29;99134.22;;;-5.89;100.00
34674;BME280;20879;55.668;37.858;2022-12-18T01:12:06;99115.88;;;-5.85;100.00
34674;BME280;20879;55.668;37.858;2022-12-18T01:14:36;99108.88;;;-5.92;100.00
34674;BME280;20879;55.668;37.858;2022-12-18T01:17:05;99113.75;;;-5.97;100.00
34674;BME280;20879;55.668;37.858;2022-12-18T01:19:41;99081.88;;;-5.95;100.00
34674;BME280;20879;55.668;37.858;2022-12-18T01:22:10;99135.13;;;-5.87;100.00
34674;BME280;20879;55.668;37.858;2022-12-18T01:24:40;99112.63;;;-5.83;100.00
34674;BME280;20879;55.668;37.858;2022-12-18T01:27:09;99129.94;;;-5.90;100.00
34674;BME280;20879;55.668;37.858;2022-12-18T01:29:39;99107.50;;;-5.84;100.00
34674;BME280;20879;55.668;37.858;2022-12-18T01:32:20;99122.56;;;-5.86;100.00
34674;BME280;20879;55.668;37.858;2022-12-18T01:34:57;99070.94;;;-5.95;100.00
34674;BME280;20879;55.668;37.858;2022-12-18T01:37:32;99104.28;;;-6.03;100.00
34674;BME280;20879;55.668;37.858;2022-12-18T01:40:01;99011.81;;;-6.04;100.00
34674;BME280;20879;55.668;37.858;2022-12-18T01:42:30;99114.50;;;-6.00;100.00
34674;BME280;20879;55.668;37.858;2022-12-18T01:45:23;99045.44;;;-6.03;100.00
34674;BME280;20879;55.668;37.858;2022-12-18T01:47:54;99112.75;;;-6.01;100.00
34674;BME280;20879;55.668;37.858;2022-12-18T01:50:29;99021.66;;;-6.10;100.00
34674;BME280;20879;55.668;37.858;2022-12-18T01:53:10;99034.81;;;-6.17;100.00
34674;BME280;20879;55.668;37.858;2022-12-18T01:55:47;99078.56;;;-6.15;100.00
34674;BME280;20879;55.668;37.858;2022-12-18T01:58:19;99073.25;;;-6.02;100.00
34674;BME280;20879;55.668;37.858;2022-12-18T02:00:50;99062.47;;;-5.98;100.00
34674;BME280;20879;55.668;37.858;2022-12-18T02:03:19;99067.75;;;-5.91;100.00
34674;BME280;20879;55.668;37.858;2022-12-18T02:06:00;99055.81;;;-5.95;100.00
34674;BME280;20879;55.668;37.858;2022-12-18T02:08:35;99038.88;;;-6.00;100.00
34674;BME280;20879;55.668;37.858;2022-12-18T02:11:10;99108.59;;;-6.00;100.00
34674;BME280;20879;55.668;37.858;2022-12-18T02:13:53;99005.03;;;-6.05;100.00
34674;BME280;20879;55.668;37.858;2022-12-18T02:16:33;99051.91;;;-6.10;100.00
34674;BME280;20879;55.668;37.858;2022-12-18T02:19:26;99091.00;;;-5.99;100.00
34674;BME280;20879;55.668;37.858;2022-12-18T02:22:10;99105.34;;;-5.96;100.00
34674;BME280;20879;55.668;37.858;2022-12-18T02:24:58;99078.84;;;-6.09;100.00
34674;BME280;20879;55.668;37.858;2022-12-18T02:27:32;99023.22;;;-6.12;100.00
34674;BME280;20879;55.668;37.858;2022-12-18T02:30:05;99070.84;;;-5.99;100.00
34674;BME280;20879;55.668;37.858;2022-12-18T02:32:40;99046.44;;;-6.00;100.00
34674;BME280;20879;55.668;37.858;2022-12-18T02:35:16;99017.84;;;-6.21;100.00
34674;BME280;20879;55.668;37.858;2022-12-18T02:37:58;99069.41;;;-6.13;100.00
34674;BME280;20879;55.668;37.858;2022-12-18T02:40:36;99042.19;;;-6.01;100.00
34674;BME280;20879;55.668;37.858;2022-12-18T02:43:12;99021.84;;;-6.05;100.00
34674;BME280;20879;55.668;37.858;2022-12-18T02:45:54;99088.50;;;-5.99;100.00
34674;BME280;20879;55.668;37.858;2022-12-18T02:48:29;99104.63;;;-5.93;100.00
34674;BME280;20879;55.668;37.858;2022-12-18T02:51:03;99111.16;;;-5.77;100.00
34674;BME280;20879;55.668;37.858;2022-12-18T02:53:41;99064.28;;;-5.93;100.00
34674;BME280;20879;55.668;37.858;2022-12-18T02:56:21;99093.81;;;-5.91;100.00
34674;BME280;20879;55.668;37.858;2022-12-18T02:58:58;99087.22;;;-5.87;100.00
34674;BME280;20879;55.668;37.858;2022-12-18T03:01:42;99034.03;;;-5.93;100.00
34674;BME280;20879;55.668;37.858;2022-12-18T03:04:14;99040.22;;;-6.08;100.00
34674;BME280;20879;55.668;37.858;2022-12-18T03:06:53;99079.09;;;-6.03;100.00
34674;BME280;20879;55.668;37.858;2022-12-18T03:09:28;99060.56;;;-6.03;100.00
34674;BME280;20879;55.668;37.858;2022-12-18T03:12:04;99066.66;;;-5.98;100.00
34674;BME280;20879;55.668;37.858;2022-12-18T03:14:59;99016.38;;;-6.16;100.00
34674;BME280;20879;55.668;37.858;2022-12-18T03:17:32;99062.28;;;-6.23;100.00
34674;BME280;20879;55.668;37.858;2022-12-18T03:20:05;99069.25;;;-6.18;100.00
34674;BME280;20879;55.668;37.858;2022-12-18T03:22:38;99074.66;;;-6.08;100.00
34674;BME280;20879;55.668;37.858;2022-12-18T03:25:10;99125.72;;;-5.91;100.00
34674;BME280;20879;55.668;37.858;2022-12-18T03:27:46;99091.63;;;-6.04;100.00
34674;BME280;20879;55.668;37.858;2022-12-18T03:30:23;99102.88;;;-5.94;100.00
34674;BME280;20879;55.668;37.858;2022-12-18T03:32:58;99125.56;;;-5.94;100.00
34674;BME280;20879;55.668;37.858;2022-12-18T03:35:32;99124.06;;;-5.91;100.00
34674;BME280;20879;55.668;37.858;2022-12-18T03:38:04;99061.81;;;-6.15;100.00
34674;BME280;20879;55.668;37.858;2022-12-18T03:40:44;99078.06;;;-6.27;100.00
34674;BME280;20879;55.668;37.858;2022-12-18T03:43:27;99039.38;;;-6.29;100.00
34674;BME280;20879;55.668;37.858;2022-12-18T03:46:06;98993.69;;;-6.78;100.00
34674;BME280;20879;55.668;37.858;2022-12-18T03:48:43;99097.16;;;-6.33;100.00
34674;BME280;20879;55.668;37.858;2022-12-18T03:51:22;99095.75;;;-6.26;100.00
34674;BME280;20879;55.668;37.858;2022-12-18T03:53:55;99084.31;;;-6.39;100.00
34674;BME280;20879;55.668;37.858;2022-12-18T03:56:38;99091.06;;;-6.38;100.00
34674;BME280;20879;55.668;37.858;2022-12-18T03:59:12;99069.53;;;-6.10;100.00
34674;BME280;20879;55.668;37.858;2022-12-18T04:01:46;99072.31;;;-6.25;100.00
34674;BME280;20879;55.668;37.858;2022-12-18T04:04:20;99054.72;;;-6.23;100.00
34674;BME280;20879;55.668;37.858;2022-12-18T04:06:52;99115.69;;;-6.11;100.00
34674;BME280;20879;55.668;37.858;2022-12-18T04:09:23;99061.47;;;-6.22;100.00
34674;BME280;20879;55.668;37.858;2022-12-18T04:11:53;99115.25;;;-6.22;100.00
34674;BME280;20879;55.668;37.858;2022-12-18T04:14:28;99118.06;;;-6.35;100.00
34674;BME280;20879;55.668;37.858;2022-12-18T04:17:10;99064.97;;;-6.40;100.00
34674;BME280;20879;55.668;37.858;2022-12-18T04:19:39;99067.88;;;-6.30;100.00
34674;BME280;20879;55.668;37.858;2022-12-18T04:22:15;99098.22;;;-6.27;100.00
34674;BME280;20879;55.668;37.858;2022-12-18T04:24:56;99119.22;;;-6.27;100.00
34674;BME280;20879;55.668;37.858;2022-12-18T04:27:32;99128.72;;;-6.21;100.00
34674;BME280;20879;55.668;37.858;2022-12-18T04:30:08;99149.53;;;-6.06;100.00
34674;BME280;20879;55.668;37.858;2022-12-18T04:32:40;99098.59;;;-6.18;100.00
34674;BME280;20879;55.668;37.858;2022-12-18T04:35:15;99156.63;;;-6.17;100.00
34674;BME280;20879;55.668;37.858;2022-12-18T04:37:45;99152.59;;;-6.13;100.00
34674;BME280;20879;55.668;37.858;2022-12-18T04:40:15;99169.03;;;-6.02;100.00
34674;BME280;20879;55.668;37.858;2022-12-18T04:42:46;99090.91;;;-6.02;100.00
34674;BME280;20879;55.668;37.858;2022-12-18T04:45:16;99171.28;;;-6.08;100.00
34674;BME280;20879;55.668;37.858;2022-12-18T04:47:47;99145.56;;;-6.20;100.00
34674;BME280;20879;55.668;37.858;2022-12-18T04:50:17;99173.16;;;-6.23;100.00
34674;BME280;20879;55.668;37.858;2022-12-18T04:52:46;99188.16;;;-6.26;100.00
34674;BME280;20879;55.668;37.858;2022-12-18T04:55:15;99207.44;;;-6.07;100.00
34674;BME280;20879;55.668;37.858;2022-12-18T04:57:44;99186.53;;;-6.05;100.00
34674;BME280;20879;55.668;37.858;2022-12-18T05:00:19;99224.06;;;-5.91;100.00
34674;BME280;20879;55.668;37.858;2022-12-18T05:02:57;99226.84;;;-5.85;100.00
34674;BME280;20879;55.668;37.858;2022-12-18T05:05:26;99235.31;;;-5.83;100.00
34674;BME280;20879;55.668;37.858;2022-12-18T05:07:55;99233.53;;;-5.86;100.00
34674;BME280;20879;55.668;37.858;2022-12-18T05:10:24;99226.84;;;-5.85;100.00
34674;BME280;20879;55.668;37.858;2022-12-18T05:12:54;99175.53;;;-6.07;100.00
34674;BME280;20879;55.668;37.858;2022-12-18T05:15:31;99165.59;;;-6.23;100.00
34674;BME280;20879;55.668;37.858;2022-12-18T05:18:13;99177.84;;;-6.51;100.00
34674;BME280;20879;55.668;37.858;2022-12-18T05:20:43;99210.41;;;-6.36;100.00
34674;BME280;20879;55.668;37.858;2022-12-18T05:23:13;99147.56;;;-6.52;100.00
34674;BME280;20879;55.668;37.858;2022-12-18T05:25:42;99219.56;;;-6.57;100.00
34674;BME280;20879;55.668;37.858;2022-12-18T05:28:17;99198.59;;;-6.56;100.00
34674;BME280;20879;55.668;37.858;2022-12-18T05:30:49;99192.38;;;-6.64;100.00
34674;BME280;20879;55.668;37.858;2022-12-18T05:33:29;99178.56;;;-6.73;100.00
34674;BME280;20879;55.668;37.858;2022-12-18T05:36:00;99205.75;;;-6.65;100.00
34674;BME280;20879;55.668;37.858;2022-12-18T05:38:32;99240.16;;;-6.46;100.00
34674;BME280;20879;55.668;37.858;2022-12-18T05:41:03;99246.06;;;-6.46;100.00
34674;BME280;20879;55.668;37.858;2022-12-18T05:43:35;99211.44;;;-6.70;100.00
34674;BME280;20879;55.668;37.858;2022-12-18T05:46:05;99228.00;;;-6.75;100.00
34674;BME280;20879;55.668;37.858;2022-12-18T05:48:37;99261.41;;;-6.59;100.00
34674;BME280;20879;55.668;37.858;2022-12-18T05:51:13;99266.53;;;-6.58;100.00
34674;BME280;20879;55.668;37.858;2022-12-18T05:53:48;99165.19;;;-6.72;100.00
34674;BME280;20879;55.668;37.858;2022-12-18T05:56:21;99225.75;;;-6.69;100.00
34674;BME280;20879;55.668;37.858;2022-12-18T05:58:51;99298.03;;;-6.48;100.00
34674;BME280;20879;55.668;37.858;2022-12-18T06:01:22;99281.84;;;-6.35;100.00
34674;BME280;20879;55.668;37.858;2022-12-18T06:03:55;99281.03;;;-6.34;100.00
34674;BME280;20879;55.668;37.858;2022-12-18T06:06:26;99269.84;;;-6.21;100.00
34674;BME280;20879;55.668;37.858;2022-12-18T06:09:01;99300.47;;;-6.32;100.00
34674;BME280;20879;55.668;37.858;2022-12-18T06:11:35;99280.75;;;-6.40;100.00
34674;BME280;20879;55.668;37.858;2022-12-18T06:14:06;99303.28;;;-6.43;100.00
34674;BME280;20879;55.668;37.858;2022-12-18T06:16:40;99313.66;;;-6.55;100.00
34674;BME280;20879;55.668;37.858;2022-12-18T06:19:16;99325.63;;;-6.51;100.00
34674;BME280;20879;55.668;37.858;2022-12-18T06:21:46;99312.84;;;-6.36;100.00
34674;BME280;20879;55.668;37.858;2022-12-18T06:24:21;99313.34;;;-6.25;100.00
34674;BME280;20879;55.668;37.858;2022-12-18T06:26:50;99312.53;;;-6.24;100.00
34674;BME280;20879;55.668;37.858;2022-12-18T06:29:19;99314.16;;;-6.26;100.00
34674;BME280;20879;55.668;37.858;2022-12-18T06:31:48;99315.56;;;-6.32;100.00
34674;BME280;20879;55.668;37.858;2022-12-18T06:34:19;99321.91;;;-6.22;100.00
34674;BME280;20879;55.668;37.858;2022-12-18T06:36:49;99310.44;;;-6.15;100.00
34674;BME280;20879;55.668;37.858;2022-12-18T06:39:18;99316.56;;;-6.10;100.00
34674;BME280;20879;55.668;37.858;2022-12-18T06:41:47;99326.34;;;-5.97;100.00
34674;BME280;20879;55.668;37.858;2022-12-18T06:44:18;99340.75;;;-5.94;100.00
34674;BME280;20879;55.668;37.858;2022-12-18T06:46:52;99347.94;;;-5.84;100.00
34674;BME280;20879;55.668;37.858;2022-12-18T06:49:23;99357.63;;;-5.93;100.00
34674;BME280;20879;55.668;37.858;2022-12-18T06:51:56;99326.06;;;-6.04;100.00
34674;BME280;20879;55.668;37.858;2022-12-18T06:54:36;99369.41;;;-6.11;100.00
34674;BME280;20879;55.668;37.858;2022-12-18T06:57:05;99360.84;;;-6.15;100.00
34674;BME280;20879;55.668;37.858;2022-12-18T06:59:34;99381.31;;;-6.09;100.00
34674;BME280;20879;55.668;37.858;2022-12-18T07:02:11;99384.16;;;-6.01;100.00
34674;BME280;20879;55.668;37.858;2022-12-18T07:04:43;99404.47;;;-5.79;100.00
34674;BME280;20879;55.668;37.858;2022-12-18T07:07:23;99414.50;;;-5.80;100.00
34674;BME280;20879;55.668;37.858;2022-12-18T07:09:53;99409.03;;;-5.89;100.00
34674;BME280;20879;55.668;37.858;2022-12-18T07:12:23;99373.16;;;-5.84;100.00
34674;BME280;20879;55.668;37.858;2022-12-18T07:14:52;99401.94;;;-5.98;100.00
34674;BME280;20879;55.668;37.858;2022-12-18T07:17:26;99436.31;;;-6.00;100.00
34674;BME280;20879;55.668;37.858;2022-12-18T07:19:58;99400.66;;;-6.08;100.00
34674;BME280;20879;55.668;37.858;2022-12-18T07:22:29;99410.34;;;-5.80;100.00
34674;BME280;20879;55.668;37.858;2022-12-18T07:24:58;99407.94;;;-5.76;100.00
34674;BME280;20879;55.668;37.858;2022-12-18T07:27:29;99431.91;;;-5.67;100.00
34674;BME280;20879;55.668;37.858;2022-12-18T07:29:58;99432.34;;;-5.57;100.00
34674;BME280;20879;55.668;37.858;2022-12-18T07:32:30;99442.09;;;-5.46;100.00
34674;BME280;20879;55.668;37.858;2022-12-18T07:35:02;99438.50;;;-5.51;100.00
34674;BME280;20879;55.668;37.858;2022-12-18T07:37:31;99447.53;;;-5.36;100.00
34674;BME280;20879;55.668;37.858;2022-12-18T07:40:00;99455.53;;;-5.27;100.00
34674;BME280;20879;55.668;37.858;2022-12-18T07:42:30;99437.91;;;-5.45;100.00
34674;BME280;20879;55.668;37.858;2022-12-18T07:44:59;99454.19;;;-5.38;100.00
34674;BME280;20879;55.668;37.858;2022-12-18T07:47:34;99450.56;;;-5.25;100.00
34674;BME280;20879;55.668;37.858;2022-12-18T07:50:10;99463.31;;;-5.22;100.00
34674;BME280;20879;55.668;37.858;2022-12-18T07:52:40;99460.78;;;-5.22;100.00
34674;BME280;20879;55.668;37.858;2022-12-18T07:55:09;99415.84;;;-5.49;100.00
34674;BME280;20879;55.668;37.858;2022-12-18T07:57:38;99416.28;;;-5.40;100.00
34674;BME280;20879;55.668;37.858;2022-12-18T08:00:23;99448.94;;;-5.23;100.00
34674;BME280;20879;55.668;37.858;2022-12-18T08:02:53;99458.13;;;-5.25;100.00
34674;BME280;20879;55.668;37.858;2022-12-18T08:05:26;99473.53;;;-5.19;100.00
34674;BME280;20879;55.668;37.858;2022-12-18T08:07:55;99470.38;;;-5.33;100.00
34674;BME280;20879;55.668;37.858;2022-12-18T08:10:24;99474.59;;;-5.34;100.00
34674;BME280;20879;55.668;37.858;2022-12-18T08:12:54;99474.06;;;-5.27;100.00
34674;BME280;20879;55.668;37.858;2022-12-18T08:15:31;99464.50;;;-5.71;100.00
34674;BME280;20879;55.668;37.858;2022-12-18T08:18:00;99507.44;;;-5.52;100.00
34674;BME280;20879;55.668;37.858;2022-12-18T08:20:42;99489.84;;;-5.50;100.00
34674;BME280;20879;55.668;37.858;2022-12-18T08:23:18;99512.16;;;-5.40;100.00
34674;BME280;20879;55.668;37.858;2022-12-18T08:25:48;99518.28;;;-5.35;100.00
34674;BME280;20879;55.668;37.858;2022-12-18T08:28:17;99521.81;;;-5.31;100.00
34674;BME280;20879;55.668;37.858;2022-12-18T08:30:51;99541.56;;;-5.22;100.00
34674;BME280;20879;55.668;37.858;2022-12-18T08:33:26;99518.41;;;-5.32;100.00
34674;BME280;20879;55.668;37.858;2022-12-18T08:35:58;99539.09;;;-5.21;100.00
34674;BME280;20879;55.668;37.858;2022-12-18T08:38:38;99480.16;;;-5.41;100.00
34674;BME280;20879;55.668;37.858;2022-12-18T08:41:10;99542.59;;;-5.37;100.00
34674;BME280;20879;55.668;37.858;2022-12-18T08:43:39;99541.44;;;-5.25;100.00
34674;BME280;20879;55.668;37.858;2022-12-18T08:46:23;99535.81;;;-5.38;100.00
34674;BME280;20879;55.668;37.858;2022-12-18T08:48:54;99556.88;;;-5.55;100.00
34674;BME280;20879;55.668;37.858;2022-12-18T08:51:25;99553.78;;;-5.50;100.00
34674;BME280;20879;55.668;37.858;2022-12-18T08:53:55;99562.19;;;-5.31;100.00
34674;BME280;20879;55.668;37.858;2022-12-18T08:56:24;99568.38;;;-5.24;100.00
34674;BME280;20879;55.668;37.858;2022-12-18T08:58:54;99512.31;;;-5.37;100.00
34674;BME280;20879;55.668;37.858;2022-12-18T09:01:24;99570.50;;;-5.34;100.00
34674;BME280;20879;55.668;37.858;2022-12-18T09:03:53;99575.19;;;-5.41;100.00
34674;BME280;20879;55.668;37.858;2022-12-18T09:06:23;99576.47;;;-5.32;100.00
34674;BME280;20879;55.668;37.858;2022-12-18T09:09:03;99524.72;;;-5.59;100.00
34674;BME280;20879;55.668;37.858;2022-12-18T09:11:33;99537.19;;;-5.63;100.00
34674;BME280;20879;55.668;37.858;2022-12-18T09:14:02;99554.50;;;-5.52;100.00
34674;BME280;20879;55.668;37.858;2022-12-18T09:16:33;99565.09;;;-5.41;100.00
34674;BME280;20879;55.668;37.858;2022-12-18T09:19:05;99564.22;;;-5.42;100.00
34674;BME280;20879;55.668;37.858;2022-12-18T09:21:35;99588.56;;;-5.24;100.00
34674;BME280;20879;55.668;37.858;2022-12-18T09:24:14;99602.69;;;-5.10;100.00
34674;BME280;20879;55.668;37.858;2022-12-18T09:26:44;99605.50;;;-5.04;100.00
34674;BME280;20879;55.668;37.858;2022-12-18T09:29:14;99620.88;;;-5.17;100.00
34674;BME280;20879;55.668;37.858;2022-12-18T09:31:45;99611.34;;;-5.23;100.00
34674;BME280;20879;55.668;37.858;2022-12-18T09:34:17;99608.59;;;-5.10;100.00
34674;BME280;20879;55.668;37.858;2022-12-18T09:36:48;99579.47;;;-5.03;100.00
34674;BME280;20879;55.668;37.858;2022-12-18T09:39:19;99582.31;;;-4.95;100.00
34674;BME280;20879;55.668;37.858;2022-12-18T09:41:51;99623.91;;;-5.06;100.00
34674;BME280;20879;55.668;37.858;2022-12-18T09:44:27;99621.31;;;-5.08;100.00
34674;BME280;20879;55.668;37.858;2022-12-18T09:47:10;99622.09;;;-5.09;100.00
34674;BME280;20879;55.668;37.858;2022-12-18T09:49:45;99623.53;;;-5.14;100.00
34674;BME280;20879;55.668;37.858;2022-12-18T09:52:19;99635.75;;;-5.23;100.00
34674;BME280;20879;55.668;37.858;2022-12-18T09:54:55;99591.53;;;-5.33;100.00
34674;BME280;20879;55.668;37.858;2022-12-18T09:57:26;99611.09;;;-5.29;100.00
34674;BME280;20879;55.668;37.858;2022-12-18T10:00:08;99627.38;;;-5.22;100.00
34674;BME280;20879;55.668;37.858;2022-12-18T10:02:47;99617.88;;;-5.28;100.00
34674;BME280;20879;55.668;37.858;2022-12-18T10:05:19;99633.88;;;-5.28;100.00
34674;BME280;20879;55.668;37.858;2022-12-18T10:07:58;99621.19;;;-5.29;100.00
34674;BME280;20879;55.668;37.858;2022-12-18T10:10:42;99603.38;;;-5.32;100.00
34674;BME280;20879;55.668;37.858;2022-12-18T10:13:21;99648.72;;;-5.34;100.00
34674;BME280;20879;55.668;37.858;2022-12-18T10:16:07;99632.44;;;-5.22;100.00
34674;BME280;20879;55.668;37.858;2022-12-18T10:21:44;99638.91;;;-5.28;100.00
34674;BME280;20879;55.668;37.858;2022-12-18T10:24:25;99643.69;;;-5.34;100.00
34674;BME280;20879;55.668;37.858;2022-12-18T10:27:12;99619.81;;;-5.40;100.00
34674;BME280;20879;55.668;37.858;2022-12-18T10:29:48;99641.31;;;-5.31;100.00
34674;BME280;20879;55.668;37.858;2022-12-18T10:32:20;99610.81;;;-5.35;100.00
34674;BME280;20879;55.668;37.858;2022-12-18T10:34:53;99633.38;;;-5.38;100.00
34674;BME280;20879;55.668;37.858;2022-12-18T10:37:28;99628.75;;;-5.29;100.00
34674;BME280;20879;55.668;37.858;2022-12-18T10:40:13;99592.25;;;-5.18;100.00
34674;BME280;20879;55.668;37.858;2022-12-18T10:43:05;99643.38;;;-5.22;100.00
34674;BME280;20879;55.668;37.858;2022-12-18T10:45:34;99653.69;;;-5.17;100.00
34674;BME280;20879;55.668;37.858;2022-12-18T10:48:04;99665.41;;;-5.19;100.00
34674;BME280;20879;55.668;37.858;2022-12-18T10:50:35;99648.88;;;-5.31;100.00
34674;BME280;20879;55.668;37.858;2022-12-18T10:53:27;99673.97;;;-5.34;100.00
34674;BME280;20879;55.668;37.858;2022-12-18T10:56:00;99677.41;;;-5.32;100.00
34674;BME280;20879;55.668;37.858;2022-12-18T10:58:33;99704.69;;;-5.24;100.00
34674;BME280;20879;55.668;37.858;2022-12-18T11:01:10;99672.38;;;-5.32;100.00
34674;BME280;20879;55.668;37.858;2022-12-18T11:03:47;99723.31;;;-5.22;100.00
34674;BME280;20879;55.668;37.858;2022-12-18T11:06:29;99714.91;;;-5.39;100.00
34674;BME280;20879;55.668;37.858;2022-12-18T11:09:05;99716.25;;;-5.30;100.00
34674;BME280;20879;55.668;37.858;2022-12-18T11:11:48;99699.91;;;-5.36;100.00
34674;BME280;20879;55.668;37.858;2022-12-18T11:14:27;99697.63;;;-5.32;100.00
34674;BME280;20879;55.668;37.858;2022-12-18T11:16:59;99736.22;;;-5.16;100.00
34674;BME280;20879;55.668;37.858;2022-12-18T11:19:55;99733.03;;;-5.30;100.00
34674;BME280;20879;55.668;37.858;2022-12-18T11:22:26;99708.09;;;-5.58;100.00
34674;BME280;20879;55.668;37.858;2022-12-18T11:24:58;99726.53;;;-5.43;100.00
34674;BME280;20879;55.668;37.858;2022-12-18T11:27:49;99738.81;;;-5.33;100.00
34674;BME280;20879;55.668;37.858;2022-12-18T11:30:27;99735.25;;;-5.36;100.00
34674;BME280;20879;55.668;37.858;2022-12-18T11:33:03;99729.22;;;-5.40;100.00
34674;BME280;20879;55.668;37.858;2022-12-18T11:35:42;99738.34;;;-5.42;100.00
34674;BME280;20879;55.668;37.858;2022-12-18T11:38:22;99704.19;;;-5.70;100.00
34674;BME280;20879;55.668;37.858;2022-12-18T11:40:59;99732.97;;;-5.66;100.00
34674;BME280;20879;55.668;37.858;2022-12-18T11:43:38;99752.47;;;-5.46;100.00
34674;BME280;20879;55.668;37.858;2022-12-18T11:46:13;99748.44;;;-5.42;100.00
34674;BME280;20879;55.668;37.858;2022-12-18T11:48:54;99728.44;;;-5.55;100.00
34674;BME280;20879;55.668;37.858;2022-12-18T11:51:34;99757.81;;;-5.39;100.00
34674;BME280;20879;55.668;37.858;2022-12-18T11:54:11;99771.47;;;-5.52;100.00
34674;BME280;20879;55.668;37.858;2022-12-18T11:56:46;99754.16;;;-5.63;100.00
34674;BME280;20879;55.668;37.858;2022-12-18T11:59:21;99774.97;;;-5.67;100.00
34674;BME280;20879;55.668;37.858;2022-12-18T12:02:14;99775.31;;;-5.60;100.00
34674;BME280;20879;55.668;37.858;2022-12-18T12:05:10;99793.56;;;-5.48;100.00
34674;BME280;20879;55.668;37.858;2022-12-18T12:07:47;99797.97;;;-5.44;100.00
34674;BME280;20879;55.668;37.858;2022-12-18T12:10:30;99813.59;;;-5.51;100.00
34674;BME280;20879;55.668;37.858;2022-12-18T12:13:29;99791.06;;;-5.65;100.00
34674;BME280;20879;55.668;37.858;2022-12-18T12:16:12;99802.09;;;-5.63;100.00
34674;BME280;20879;55.668;37.858;2022-12-18T12:19:06;99789.50;;;-5.79;100.00
34674;BME280;20879;55.668;37.858;2022-12-18T12:21:42;99839.31;;;-5.58;100.00
34674;BME280;20879;55.668;37.858;2022-12-18T12:24:30;99825.75;;;-5.60;100.00
34674;BME280;20879;55.668;37.858;2022-12-18T12:27:10;99809.97;;;-5.56;100.00
34674;BME280;20879;55.668;37.858;2022-12-18T12:29:51;99811.44;;;-5.44;100.00
34674;BME280;20879;55.668;37.858;2022-12-18T12:32:36;99825.66;;;-5.46;100.00
34674;BME280;20879;55.668;37.858;2022-12-18T12:35:25;99814.28;;;-5.37;100.00
34674;BME280;20879;55.668;37.858;2022-12-18T12:38:10;99851.28;;;-5.38;100.00
34674;BME280;20879;55.668;37.858;2022-12-18T12:40:43;99837.72;;;-5.40;100.00
34674;BME280;20879;55.668;37.858;2022-12-18T12:43:31;99847.09;;;-5.37;100.00
34674;BME280;20879;55.668;37.858;2022-12-18T12:46:03;99847.34;;;-5.49;100.00
34674;BME280;20879;55.668;37.858;2022-12-18T12:54:45;99895.09;;;-5.85;100.00
34674;BME280;20879;55.668;37.858;2022-12-18T12:57:22;99900.84;;;-5.88;100.00
34674;BME280;20879;55.668;37.858;2022-12-18T13:00:01;99882.56;;;-5.84;100.00
34674;BME280;20879;55.668;37.858;2022-12-18T13:02:36;99888.78;;;-5.77;100.00
34674;BME280;20879;55.668;37.858;2022-12-18T13:05:16;99880.22;;;-5.64;100.00
34674;BME280;20879;55.668;37.858;2022-12-18T13:07:56;99902.84;;;-5.66;100.00
34674;BME280;20879;55.668;37.858;2022-12-18T13:10:37;99912.06;;;-5.66;100.00
34674;BME280;20879;55.668;37.858;2022-12-18T13:13:09;99918.44;;;-5.56;100.00
34674;BME280;20879;55.668;37.858;2022-12-18T13:15:40;99897.50;;;-5.55;100.00
34674;BME280;20879;55.668;37.858;2022-12-18T13:18:18;99920.28;;;-5.54;100.00
34674;BME280;20879;55.668;37.858;2022-12-18T13:20:50;99921.25;;;-5.52;100.00
34674;BME280;20879;55.668;37.858;2022-12-18T13:23:34;99936.31;;;-5.53;100.00
34674;BME280;20879;55.668;37.858;2022-12-18T13:26:30;99921.25;;;-5.52;100.00
34674;BME280;20879;55.668;37.858;2022-12-18T13:29:01;99906.50;;;-5.60;100.00